createdAt,value
2018-01-04T00:02:04.885Z,98774.19
2018-01-04T00:04:33.231Z,98769.02
2018-01-04T00:07:01.646Z,98780.64
2018-01-04T00:09:29.973Z,98787.03
2018-01-04T00:11:58.298Z,98793.39
2018-01-04T00:14:26.635Z,98794.44
2018-01-04T00:16:55.045Z,98796.55
2018-01-04T00:19:23.438Z,98790.09
2018-01-04T00:21:51.694Z,98806.92
2018-01-04T00:24:20.045Z,98793.72
2018-01-04T00:26:48.358Z,98797.11
2018-01-04T00:29:16.678Z,98775.55
2018-01-04T00:31:45.006Z,98779.84
2018-01-04T00:34:13.378Z,98788.13
2018-01-04T00:36:41.713Z,98790.66
2018-01-04T00:39:10.035Z,98800.33
2018-01-04T00:41:38.359Z,98797.77
2018-01-04T00:44:06.669Z,98795.95
2018-01-04T00:46:35.061Z,98799.53
2018-01-04T00:49:03.369Z,98801.02
2018-01-04T00:51:31.698Z,98804.00
2018-01-04T00:54:00.090Z,98810.16
2018-01-04T00:56:28.474Z,98805.92
2018-01-04T00:58:56.786Z,98804.98
2018-01-04T01:01:25.117Z,98810.12
2018-01-04T01:03:53.433Z,98808.93
2018-01-04T01:06:21.773Z,98815.84
2018-01-04T01:08:50.086Z,98818.18
2018-01-04T01:11:18.413Z,98812.00
2018-01-04T01:13:46.725Z,98812.96
2018-01-04T01:16:15.057Z,98812.94
2018-01-04T01:18:43.458Z,98823.92
2018-01-04T01:21:11.795Z,98823.62
2018-01-04T01:23:40.101Z,98831.42
2018-01-04T01:26:08.442Z,98828.33
2018-01-04T01:28:36.762Z,98823.38
2018-01-04T01:31:05.094Z,98825.63
2018-01-04T01:33:33.516Z,98828.61
2018-01-04T01:36:01.850Z,98829.50
2018-01-04T01:38:30.153Z,98830.64
2018-01-04T01:40:58.491Z,98829.94
2018-01-04T01:43:26.818Z,98827.96
2018-01-04T01:45:55.193Z,98828.66
2018-01-04T01:48:23.570Z,98843.50
2018-01-04T01:50:51.945Z,98828.88
2018-01-04T01:53:20.257Z,98831.09
2018-01-04T01:55:48.595Z,98835.11
2018-01-04T01:58:16.976Z,98838.34
2018-01-04T02:00:45.318Z,98846.60
2018-01-04T02:03:13.734Z,98840.52
2018-01-04T02:05:42.074Z,98830.69
2018-01-04T02:08:10.391Z,98846.33
2018-01-04T02:10:38.714Z,98845.25
2018-01-04T02:13:07.026Z,98848.35
2018-01-04T02:15:35.418Z,98853.72
2018-01-04T02:18:15.521Z,98856.97
2018-01-04T02:20:55.761Z,98856.86
2018-01-04T02:23:36.034Z,98863.89
2018-01-04T02:26:04.365Z,98862.62
2018-01-04T02:28:44.614Z,98870.81
2018-01-04T02:31:24.966Z,98862.17
2018-01-04T02:34:05.028Z,98861.20
2018-01-04T02:36:45.273Z,98867.88
2018-01-04T02:39:25.118Z,98869.59
2018-01-04T02:42:04.969Z,98876.69
2018-01-04T02:44:39.902Z,98882.53
2018-01-04T02:47:07.955Z,98875.47
2018-01-04T02:49:35.990Z,98874.40
2018-01-04T02:52:04.042Z,98891.12
2018-01-04T02:54:32.074Z,98891.60
2018-01-04T02:57:00.130Z,98874.05
2018-01-04T02:59:28.167Z,98879.13
2018-01-04T03:01:56.281Z,98879.02
2018-01-04T03:04:24.353Z,98860.54
2018-01-04T03:06:52.401Z,98874.36
2018-01-04T03:09:20.493Z,98876.43
2018-01-04T03:11:48.567Z,98875.97
2018-01-04T03:14:16.638Z,98866.27
2018-01-04T03:16:44.686Z,98865.91
2018-01-04T03:19:12.721Z,98878.88
2018-01-04T03:21:46.311Z,98878.34
2018-01-04T03:24:14.337Z,98879.64
2018-01-04T03:26:48.010Z,98876.97
2018-01-04T03:29:21.534Z,98878.75
2018-01-04T03:31:55.094Z,98886.63
2018-01-04T03:34:28.938Z,98890.87
2018-01-04T03:37:02.721Z,98896.42
2018-01-04T03:39:30.823Z,98893.58
2018-01-04T03:42:04.553Z,98887.97
2018-01-04T03:44:38.269Z,98890.34
2018-01-04T03:47:12.034Z,98891.19
2018-01-04T03:49:45.802Z,98892.70
2018-01-04T03:52:32.696Z,98890.61
2018-01-04T03:55:06.434Z,98900.70
2018-01-04T03:57:40.162Z,98893.56
2018-01-04T04:00:13.883Z,98891.95
2018-01-04T04:02:47.474Z,98896.95
2018-01-04T04:05:21.218Z,98884.27
2018-01-04T04:07:49.270Z,98892.15
2018-01-04T04:10:17.393Z,98897.00
2018-01-04T04:12:45.441Z,98890.91
2018-01-04T04:15:13.477Z,98896.53
2018-01-04T04:17:41.533Z,98908.95
2018-01-04T04:20:09.561Z,98912.88
2018-01-04T04:22:37.617Z,98909.45
2018-01-04T04:25:05.655Z,98907.95
2018-01-04T04:27:33.705Z,98905.81
2018-01-04T04:30:01.742Z,98910.34
2018-01-04T04:32:29.789Z,98908.77
2018-01-04T04:34:57.894Z,98917.61
2018-01-04T04:37:25.951Z,98927.39
2018-01-04T04:39:53.978Z,98928.83
2018-01-04T04:42:22.097Z,98926.41
2018-01-04T04:44:50.139Z,98935.46
2018-01-04T04:47:18.237Z,98935.79
2018-01-04T04:49:46.314Z,98935.85
2018-01-04T04:52:14.370Z,98930.27
2018-01-04T04:54:42.406Z,98932.26
2018-01-04T04:57:10.473Z,98937.86
2018-01-04T04:59:38.596Z,98939.27
2018-01-04T05:02:06.645Z,98940.45
2018-01-04T05:04:34.686Z,98940.87
2018-01-04T05:07:02.802Z,98938.28
2018-01-04T05:09:30.870Z,98936.74
2018-01-04T05:11:58.905Z,98931.41
2018-01-04T05:14:26.969Z,98924.57
2018-01-04T05:16:54.998Z,98935.31
2018-01-04T05:19:23.149Z,98930.14
2018-01-04T05:21:51.181Z,98926.08
2018-01-04T05:24:19.239Z,98920.57
2018-01-04T05:26:47.269Z,98920.52
2018-01-04T05:29:15.437Z,98920.48
2018-01-04T05:31:43.469Z,98913.88
2018-01-04T05:34:11.526Z,98913.28
2018-01-04T05:36:39.553Z,98917.73
2018-01-04T05:39:07.614Z,98907.77
2018-01-04T05:41:35.644Z,98916.84
2018-01-04T05:44:03.702Z,98917.84
2018-01-04T05:46:31.734Z,98921.00
2018-01-04T05:48:59.791Z,98923.97
2018-01-04T05:51:27.830Z,98922.89
2018-01-04T05:53:55.877Z,98922.97
2018-01-04T05:56:23.909Z,98923.66
2018-01-04T05:58:51.963Z,98921.13
2018-01-04T06:01:19.994Z,98920.73
2018-01-04T06:03:48.051Z,98911.42
2018-01-04T06:06:16.082Z,98915.81
2018-01-04T06:08:44.137Z,98918.98
2018-01-04T06:11:12.173Z,98920.79
2018-01-04T06:13:40.218Z,98924.98
2018-01-04T06:16:08.246Z,98927.88
2018-01-04T06:18:36.302Z,98924.60
2018-01-04T06:21:04.340Z,98923.78
2018-01-04T06:23:34.426Z,98929.98
2018-01-04T06:26:02.681Z,98930.95
2018-01-04T06:28:30.739Z,98927.63
2018-01-04T06:30:58.774Z,98934.47
2018-01-04T06:33:26.990Z,98939.12
2018-01-04T06:35:55.046Z,98948.73
2018-01-04T06:38:23.131Z,98947.28
2018-01-04T06:40:51.175Z,98944.53
2018-01-04T06:43:19.234Z,98948.13
2018-01-04T06:45:47.276Z,98959.05
2018-01-04T06:48:15.562Z,98958.09
2018-01-04T06:50:46.538Z,98960.03
2018-01-04T06:53:15.185Z,98958.44
2018-01-04T06:55:43.217Z,98967.22
2018-01-04T06:58:11.279Z,98967.92
2018-01-04T07:00:39.813Z,98976.34
2018-01-04T07:03:07.821Z,98975.48
2018-01-04T07:05:35.879Z,98977.40
2018-01-04T07:08:03.905Z,98977.19
2018-01-04T07:10:31.963Z,98981.02
2018-01-04T07:12:59.998Z,98978.59
2018-01-04T07:15:28.058Z,98968.57
2018-01-04T07:17:56.093Z,98966.44
2018-01-04T07:20:24.150Z,98971.53
2018-01-04T07:22:52.186Z,98974.07
2018-01-04T07:25:20.242Z,98964.76
2018-01-04T07:27:48.274Z,98953.03
2018-01-04T07:30:16.329Z,98961.70
2018-01-04T07:32:44.362Z,98964.34
2018-01-04T07:35:12.418Z,98962.95
2018-01-04T07:37:40.458Z,98962.67
2018-01-04T07:40:08.513Z,98964.13
2018-01-04T07:42:36.838Z,98973.01
2018-01-04T07:45:05.174Z,98969.83
2018-01-04T07:47:33.490Z,98976.00
2018-01-04T07:50:01.826Z,98984.59
2018-01-04T07:52:30.148Z,98987.15
2018-01-04T07:54:58.528Z,98981.45
2018-01-04T07:57:26.807Z,98988.19
2018-01-04T07:59:55.163Z,98994.50
2018-01-04T08:02:23.473Z,99000.02
2018-01-04T08:04:51.790Z,98998.45
2018-01-04T08:07:20.129Z,98996.70
2018-01-04T08:09:48.447Z,99005.26
2018-01-04T08:12:16.785Z,99002.80
2018-01-04T08:14:45.102Z,99004.15
2018-01-04T08:17:13.442Z,99003.84
2018-01-04T08:19:41.757Z,99001.30
2018-01-04T08:22:10.089Z,98997.78
2018-01-04T08:24:38.406Z,98997.59
2018-01-04T08:27:06.746Z,99000.34
2018-01-04T08:29:35.058Z,99002.55
2018-01-04T08:32:03.406Z,98996.92
2018-01-04T08:34:31.718Z,98990.05
2018-01-04T08:37:00.070Z,98986.84
2018-01-04T08:39:28.386Z,98994.47
2018-01-04T08:41:56.730Z,98993.16
2018-01-04T08:44:25.080Z,98996.00
2018-01-04T08:46:53.438Z,99001.99
2018-01-04T08:49:21.761Z,98996.39
2018-01-04T08:51:50.070Z,98991.44
2018-01-04T08:54:18.711Z,98992.44
2018-01-04T08:56:47.026Z,98997.78
2018-01-04T08:59:15.365Z,99000.67
2018-01-04T09:01:43.694Z,98998.53
2018-01-04T09:04:12.035Z,99003.42
2018-01-04T09:06:40.358Z,99000.14
2018-01-04T09:09:08.694Z,99000.17
2018-01-04T09:11:37.010Z,99002.49
2018-01-04T09:14:05.531Z,98998.42
2018-01-04T09:16:33.850Z,98998.60
2018-01-04T09:19:02.191Z,98990.08
2018-01-04T09:21:30.512Z,98999.17
2018-01-04T09:23:58.895Z,98995.04
2018-01-04T09:26:27.386Z,99005.16
2018-01-04T09:28:56.091Z,99005.63
2018-01-04T09:31:25.351Z,98992.94
2018-01-04T09:33:54.096Z,98996.24
2018-01-04T09:36:23.841Z,98992.24
2018-01-04T09:38:52.597Z,98999.66
2018-01-04T09:41:21.322Z,98991.98
2018-01-04T09:43:50.177Z,98991.88
2018-01-04T09:46:18.925Z,98989.24
2018-01-04T09:48:47.663Z,98989.06
2018-01-04T09:51:16.443Z,98986.32
2018-01-04T09:53:46.182Z,98995.02
2018-01-04T09:56:14.821Z,98996.55
2018-01-04T09:58:43.349Z,98997.84
2018-01-04T10:01:11.899Z,98988.13
2018-01-04T10:03:40.670Z,98973.95
2018-01-04T10:06:09.461Z,98989.66
2018-01-04T10:08:38.144Z,98987.66
2018-01-04T10:11:06.817Z,98989.14
2018-01-04T10:13:35.472Z,98977.11
2018-01-04T10:16:04.106Z,98972.87
2018-01-04T10:18:32.730Z,98973.86
2018-01-04T10:21:01.451Z,98970.53
2018-01-04T10:23:30.141Z,98971.81
2018-01-04T10:25:58.897Z,98964.70
2018-01-04T10:28:27.670Z,98964.13
2018-01-04T10:30:56.484Z,98961.84
2018-01-04T10:33:25.270Z,98955.62
2018-01-04T10:35:54.008Z,98957.52
2018-01-04T10:38:22.669Z,98949.53
2018-01-04T10:40:51.358Z,98940.64
2018-01-04T10:43:19.747Z,98941.24
2018-01-04T10:45:48.086Z,98943.02
2018-01-04T10:48:16.406Z,98938.17
2018-01-04T10:50:44.737Z,98940.20
2018-01-04T10:53:13.054Z,98940.63
2018-01-04T10:55:41.394Z,98938.66
2018-01-04T10:58:09.718Z,98934.27
2018-01-04T11:00:38.059Z,98939.97
2018-01-04T11:03:06.374Z,98945.02
2018-01-04T11:05:34.717Z,98948.59
2018-01-04T11:08:03.038Z,98944.02
2018-01-04T11:10:31.390Z,98931.84
2018-01-04T11:12:59.714Z,98923.41
2018-01-04T11:15:28.059Z,98920.30
2018-01-04T11:17:56.382Z,98910.39
2018-01-04T11:20:24.727Z,98904.41
2018-01-04T11:22:53.083Z,98907.55
2018-01-04T11:25:21.421Z,98915.83
2018-01-04T11:27:49.741Z,98907.05
2018-01-04T11:30:18.071Z,98911.59
2018-01-04T11:32:46.391Z,98902.51
2018-01-04T11:35:14.730Z,98901.92
2018-01-04T11:37:43.709Z,98898.39
2018-01-04T11:40:12.046Z,98889.18
2018-01-04T11:42:40.374Z,98885.69
2018-01-04T11:45:08.714Z,98874.53
2018-01-04T11:47:37.034Z,98871.18
2018-01-04T11:50:05.390Z,98863.26
2018-01-04T11:52:33.714Z,98862.22
2018-01-04T11:55:02.062Z,98857.97
2018-01-04T11:57:30.719Z,98851.33
2018-01-04T11:59:59.287Z,98864.54
2018-01-04T12:02:27.593Z,98853.66
2018-01-04T12:04:55.930Z,98861.34
2018-01-04T12:07:24.252Z,98851.33
2018-01-04T12:09:52.603Z,98845.22
2018-01-04T12:12:20.974Z,98847.80
2018-01-04T12:14:49.246Z,98843.88
2018-01-04T12:17:17.583Z,98843.50
2018-01-04T12:19:45.907Z,98838.66
2018-01-04T12:22:14.252Z,98838.77
2018-01-04T12:24:42.586Z,98828.41
2018-01-04T12:27:10.925Z,98828.36
2018-01-04T12:29:39.403Z,98826.34
2018-01-04T12:32:08.068Z,98815.50
2018-01-04T12:34:36.547Z,98807.77
2018-01-04T12:37:05.277Z,98803.38
2018-01-04T12:39:33.722Z,98809.09
2018-01-04T12:42:02.126Z,98803.43
2018-01-04T12:44:30.631Z,98798.41
2018-01-04T12:46:59.118Z,98794.37
2018-01-04T12:49:27.510Z,98786.64
2018-01-04T12:51:56.062Z,98777.22
2018-01-04T12:54:25.035Z,98770.78
2018-01-04T12:56:54.580Z,98770.16
2018-01-04T12:59:22.966Z,98765.01
2018-01-04T13:01:51.310Z,98764.58
2018-01-04T13:04:19.750Z,98757.36
2018-01-04T13:06:48.087Z,98749.70
2018-01-04T13:09:16.409Z,98744.02
2018-01-04T13:11:44.902Z,98740.23
2018-01-04T13:14:14.010Z,98744.13
2018-01-04T13:16:42.350Z,98745.89
2018-01-04T13:19:10.669Z,98730.82
2018-01-04T13:21:39.015Z,98725.27
2018-01-04T13:24:07.330Z,98721.86
2018-01-04T13:26:35.679Z,98727.48
2018-01-04T13:29:03.990Z,98721.09
2018-01-04T13:31:32.334Z,98718.02
2018-01-04T13:34:00.654Z,98715.06
2018-01-04T13:36:29.001Z,98716.08
2018-01-04T13:38:57.315Z,98700.06
2018-01-04T13:41:25.665Z,98700.95
2018-01-04T13:43:53.986Z,98696.36
2018-01-04T13:46:22.322Z,98694.73
2018-01-04T13:48:50.637Z,98693.62
2018-01-04T13:51:18.982Z,98701.34
2018-01-04T13:53:47.299Z,98698.06
2018-01-04T13:56:15.637Z,98698.16
2018-01-04T13:58:43.954Z,98694.83
2018-01-04T14:01:12.294Z,98691.33
2018-01-04T14:03:40.610Z,98688.81
2018-01-04T14:06:08.951Z,98670.77
2018-01-04T14:08:37.266Z,98665.95
2018-01-04T14:11:05.616Z,98659.77
2018-01-04T14:13:33.923Z,98656.22
2018-01-04T14:16:02.283Z,98648.19
2018-01-04T14:18:30.603Z,98643.50
2018-01-04T14:20:58.918Z,98638.30
2018-01-04T14:23:27.258Z,98635.83
2018-01-04T14:25:55.894Z,98630.97
2018-01-04T14:28:24.576Z,98630.63
2018-01-04T14:30:52.954Z,98632.21
2018-01-04T14:33:21.294Z,98634.50
2018-01-04T14:35:49.610Z,98626.15
2018-01-04T14:38:17.946Z,98629.91
2018-01-04T14:40:46.266Z,98630.33
2018-01-04T14:43:14.606Z,98631.05
2018-01-04T14:45:42.919Z,98618.00
2018-01-04T14:48:11.260Z,98614.34
2018-01-04T14:50:39.604Z,98597.38
2018-01-04T14:53:07.946Z,98594.38
2018-01-04T14:55:36.267Z,98590.63
2018-01-04T14:58:04.606Z,98594.17
2018-01-04T15:00:32.922Z,98586.16
2018-01-04T15:03:01.262Z,98593.19
2018-01-04T15:05:29.668Z,98587.86
2018-01-04T15:07:58.035Z,98585.77
2018-01-04T15:10:26.350Z,98583.84
2018-01-04T15:12:54.698Z,98579.45
2018-01-04T15:15:23.027Z,98578.27
2018-01-04T15:17:51.394Z,98575.13
2018-01-04T15:20:19.713Z,98571.16
2018-01-04T15:22:48.056Z,98567.05
2018-01-04T15:25:16.376Z,98565.42
2018-01-04T15:27:44.718Z,98562.40
2018-01-04T15:30:13.848Z,98554.91
2018-01-04T15:32:42.195Z,98557.16
2018-01-04T15:35:10.505Z,98561.49
2018-01-04T15:37:38.841Z,98551.07
2018-01-04T15:40:07.185Z,98560.55
2018-01-04T15:42:35.503Z,98559.45
2018-01-04T15:45:03.822Z,98560.37
2018-01-04T15:47:32.171Z,98557.58
2018-01-04T15:50:00.481Z,98551.68
2018-01-04T15:52:28.831Z,98550.66
2018-01-04T15:54:57.149Z,98543.86
2018-01-04T15:57:25.566Z,98544.13
2018-01-04T15:59:53.875Z,98537.39
2018-01-04T16:02:22.214Z,98522.84
2018-01-04T16:04:50.545Z,98515.36
2018-01-04T16:07:18.865Z,98520.17
2018-01-04T16:09:47.195Z,98514.01
2018-01-04T16:12:15.530Z,98504.95
2018-01-04T16:14:43.847Z,98495.16
2018-01-04T16:17:12.449Z,98486.77
2018-01-04T16:19:40.763Z,98486.28
2018-01-04T16:22:09.078Z,98484.25
2018-01-04T16:24:37.415Z,98479.02
2018-01-04T16:27:05.749Z,98472.85
2018-01-04T16:29:34.070Z,98464.94
2018-01-04T16:32:02.798Z,98468.66
2018-01-04T16:34:36.032Z,98460.81
2018-01-04T16:37:08.398Z,98452.48
2018-01-04T16:39:36.734Z,98453.36
2018-01-04T16:42:05.050Z,98449.61
2018-01-04T16:44:33.390Z,98443.48
2018-01-04T16:47:01.706Z,98437.48
2018-01-04T16:49:30.158Z,98431.19
2018-01-04T16:51:58.482Z,98426.59
2018-01-04T16:54:26.822Z,98416.19
2018-01-04T16:56:55.129Z,98411.39
2018-01-04T16:59:23.681Z,98405.07
2018-01-04T17:01:52.076Z,98395.63
2018-01-04T17:04:20.435Z,98392.06
2018-01-04T17:06:48.780Z,98393.34
2018-01-04T17:09:17.107Z,98391.17
2018-01-04T17:11:45.417Z,98383.47
2018-01-04T17:14:13.747Z,98380.78
2018-01-04T17:16:42.058Z,98382.09
2018-01-04T17:19:10.391Z,98382.73
2018-01-04T17:21:38.706Z,98380.91
2018-01-04T17:24:07.047Z,98382.22
2018-01-04T17:26:35.355Z,98375.24
2018-01-04T17:29:03.699Z,98364.68
2018-01-04T17:31:32.016Z,98369.11
2018-01-04T17:34:00.363Z,98354.30
2018-01-04T17:36:28.682Z,98334.13
2018-01-04T17:38:56.997Z,98332.09
2018-01-04T17:41:25.310Z,98330.22
2018-01-04T17:43:53.646Z,98346.42
2018-01-04T17:46:21.956Z,98343.58
2018-01-04T17:48:50.290Z,98346.68
2018-01-04T17:51:18.602Z,98342.94
2018-01-04T17:53:46.943Z,98340.73
2018-01-04T17:56:15.293Z,98340.27
2018-01-04T17:58:43.599Z,98336.09
2018-01-04T18:01:11.916Z,98332.13
2018-01-04T18:03:40.255Z,98328.25
2018-01-04T18:06:08.566Z,98326.45
2018-01-04T18:08:36.905Z,98313.42
2018-01-04T18:11:05.230Z,98314.83
2018-01-04T18:13:33.564Z,98316.39
2018-01-04T18:16:01.887Z,98317.15
2018-01-04T18:18:30.226Z,98309.75
2018-01-04T18:20:58.542Z,98303.97
2018-01-04T18:23:26.887Z,98291.55
2018-01-04T18:25:55.202Z,98284.16
2018-01-04T18:28:23.525Z,98273.40
2018-01-04T18:30:51.918Z,98263.45
2018-01-04T18:33:20.242Z,98242.38
2018-01-04T18:35:48.587Z,98256.48
2018-01-04T18:38:17.041Z,98255.56
2018-01-04T18:40:45.378Z,98246.71
2018-01-04T18:43:13.701Z,98239.73
2018-01-04T18:45:42.144Z,98246.39
2018-01-04T18:48:10.674Z,98250.38
2018-01-04T18:50:39.027Z,98254.06
2018-01-04T18:53:07.350Z,98255.50
2018-01-04T18:55:35.698Z,98252.22
2018-01-04T18:58:04.036Z,98247.45
2018-01-04T19:00:32.387Z,98243.95
2018-01-04T19:03:00.710Z,98235.06
2018-01-04T19:05:29.058Z,98241.21
2018-01-04T19:07:57.386Z,98244.31
2018-01-04T19:10:25.730Z,98233.55
2018-01-04T19:12:54.059Z,98238.90
2018-01-04T19:15:23.122Z,98222.58
2018-01-04T19:17:51.445Z,98217.83
2018-01-04T19:20:19.800Z,98220.98
2018-01-04T19:22:48.127Z,98215.09
2018-01-04T19:25:16.626Z,98232.87
2018-01-04T19:27:45.015Z,98229.27
2018-01-04T19:30:13.354Z,98228.33
2018-01-04T19:32:41.674Z,98226.20
2018-01-04T19:35:10.026Z,98228.30
2018-01-04T19:37:38.357Z,98225.37
2018-01-04T19:40:06.701Z,98225.23
2018-01-04T19:42:35.867Z,98228.48
2018-01-04T19:45:04.221Z,98230.66
2018-01-04T19:47:32.535Z,98227.97
2018-01-04T19:50:00.895Z,98208.84
2018-01-04T19:52:29.223Z,98225.65
2018-01-04T19:54:57.567Z,98233.31
2018-01-04T19:57:25.891Z,98232.73
2018-01-04T19:59:54.238Z,98221.36
2018-01-04T20:02:22.559Z,98229.81
2018-01-04T20:04:50.901Z,98232.41
2018-01-04T20:07:19.315Z,98226.83
2018-01-04T20:09:47.660Z,98231.13
2018-01-04T20:12:15.974Z,98236.70
2018-01-04T20:14:44.318Z,98232.45
2018-01-04T20:17:12.663Z,98235.36
2018-01-04T20:19:41.001Z,98222.89
2018-01-04T20:22:09.330Z,98220.80
2018-01-04T20:24:38.169Z,98219.95
2018-01-04T20:27:06.491Z,98224.95
2018-01-04T20:29:34.854Z,98224.75
2018-01-04T20:32:03.218Z,98223.24
2018-01-04T20:34:31.683Z,98224.41
2018-01-04T20:37:00.027Z,98231.20
2018-01-04T20:39:28.396Z,98225.61
2018-01-04T20:41:56.797Z,98230.72
2018-01-04T20:44:25.094Z,98235.45
2018-01-04T20:46:53.520Z,98251.36
2018-01-04T20:49:22.017Z,98243.23
2018-01-04T20:51:50.798Z,98220.31
2018-01-04T20:54:19.129Z,98241.98
2018-01-04T20:56:47.471Z,98246.89
2018-01-04T20:59:15.832Z,98241.13
2018-01-04T21:01:44.351Z,98244.25
2018-01-04T21:04:12.737Z,98253.75
2018-01-04T21:06:41.069Z,98250.09
2018-01-04T21:09:09.489Z,98252.47
2018-01-04T21:11:38.843Z,98258.75
2018-01-04T21:14:07.215Z,98263.48
2018-01-04T21:16:35.714Z,98245.09
2018-01-04T21:19:04.127Z,98260.08
2018-01-04T21:21:32.806Z,98261.63
2018-01-04T21:24:01.121Z,98262.48
2018-01-04T21:26:29.466Z,98275.42
2018-01-04T21:28:57.781Z,98279.58
2018-01-04T21:31:26.354Z,98280.27
2018-01-04T21:33:55.731Z,98281.19
2018-01-04T21:36:25.170Z,98277.45
2018-01-04T21:38:53.497Z,98288.70
2018-01-04T21:41:21.952Z,98291.48
2018-01-04T21:43:50.823Z,98293.90
2018-01-04T21:46:19.697Z,98299.53
2018-01-04T21:48:48.670Z,98306.58
2018-01-04T21:51:16.997Z,98302.66
2018-01-04T21:53:45.374Z,98315.13
2018-01-04T21:56:13.714Z,98321.03
2018-01-04T21:58:42.027Z,98310.56
2018-01-04T22:01:10.357Z,98325.18
2018-01-04T22:03:38.678Z,98330.11
2018-01-04T22:06:07.018Z,98333.18
2018-01-04T22:08:35.342Z,98343.88
2018-01-04T22:11:03.699Z,98345.99
2018-01-04T22:13:31.998Z,98350.77
2018-01-04T22:16:00.339Z,98361.83
2018-01-04T22:18:28.650Z,98356.30
2018-01-04T22:20:56.989Z,98345.99
2018-01-04T22:23:25.310Z,98358.70
2018-01-04T22:25:53.655Z,98368.78
2018-01-04T22:28:22.026Z,98371.52
2018-01-04T22:30:50.438Z,98365.90
2018-01-04T22:33:19.070Z,98355.26
2018-01-04T22:35:48.339Z,98385.37
2018-01-04T22:38:16.658Z,98374.64
2018-01-04T22:40:44.982Z,98367.68
2018-01-04T22:43:13.323Z,98385.22
2018-01-04T22:45:42.691Z,98377.28
2018-01-04T22:48:11.035Z,98368.91
2018-01-04T22:50:40.779Z,98369.66
2018-01-04T22:53:09.144Z,98386.02
2018-01-04T22:55:38.382Z,98386.20
2018-01-04T22:58:06.726Z,98390.40
2018-01-04T23:00:35.047Z,98396.37
2018-01-04T23:03:03.386Z,98401.37
2018-01-04T23:05:31.699Z,98399.19
2018-01-04T23:08:00.049Z,98410.98
2018-01-04T23:10:28.350Z,98404.41
2018-01-04T23:12:56.696Z,98413.52
2018-01-04T23:15:25.009Z,98412.77
2018-01-04T23:17:53.346Z,98420.84
2018-01-04T23:20:21.662Z,98426.17
2018-01-04T23:22:50.001Z,98431.16
2018-01-04T23:25:18.369Z,98434.21
2018-01-04T23:27:46.657Z,98445.47
2018-01-04T23:30:14.975Z,98468.24
2018-01-04T23:32:43.322Z,98482.48
2018-01-04T23:35:11.638Z,98486.64
2018-01-04T23:37:39.970Z,98506.28
2018-01-04T23:40:08.285Z,98511.71
2018-01-04T23:42:36.609Z,98516.27
2018-01-04T23:45:04.923Z,98529.55
2018-01-04T23:47:33.271Z,98529.84
2018-01-04T23:50:01.582Z,98538.55
2018-01-04T23:52:29.918Z,98538.67
2018-01-04T23:54:59.138Z,98539.44
2018-01-04T23:57:27.469Z,98551.34
2018-01-04T23:59:55.781Z,98554.53
